Time;durP1;ratioP1;P1;durP2;ratioP2;P2;SDS_P1;SDS_P2;PMS_P1;PMS_P2;Temp;Humidity;BMP_temperature;BMP_pressure;BME280_temperature;BME280_humidity;BME280_pressure;Samples;Min_cycle;Max_cycle;Signal;HPM_P1;HPM_P2
2022/04/18 00:02:18;;;;;;;2.30;1.40;;;;;;;5.71;nan;-23976.16;5041652;28;20167;-70
2022/04/18 00:04:44;;;;;;;1.43;1.33;;;;;;;5.33;nan;-23965.66;5046893;28;20217;-71
2022/04/18 00:07:10;;;;;;;1.40;1.30;;;;;;;5.66;nan;-23974.75;5050840;28;20176;-71
2022/04/18 00:09:36;;;;;;;1.20;1.20;;;;;;;5.52;nan;-23970.91;5054066;28;20206;-72
2022/04/18 00:12:02;;;;;;;1.60;1.40;;;;;;;5.98;nan;-23983.84;5034780;28;20171;-73
2022/04/18 00:14:28;;;;;;;1.53;1.43;;;;;;;5.75;nan;-23977.31;5034117;28;20237;-74
2022/04/18 00:16:53;;;;;;;1.40;1.30;;;;;;;6.02;nan;-23984.97;5034066;28;20686;-74
2022/04/18 00:19:19;;;;;;;1.40;1.30;;;;;;;5.93;nan;-23982.44;5034299;28;20599;-71
2022/04/18 00:21:44;;;;;;;1.40;1.30;;;;;;;6.06;nan;-23986.13;5034262;28;20179;-72
2022/04/18 00:24:11;;;;;;;1.30;1.20;;;;;;;5.81;nan;-23979.00;5034337;28;20172;-70
2022/04/18 00:26:39;;;;;;;1.30;1.20;;;;;;;6.00;nan;-23984.41;5034149;28;20183;-72
2022/04/18 00:29:06;;;;;;;1.30;1.20;;;;;;;6.10;nan;-23987.25;5032428;28;20261;-71
2022/04/18 00:31:35;;;;;;;1.43;1.33;;;;;;;5.74;nan;-23977.03;5034336;28;20175;-71
2022/04/18 00:34:03;;;;;;;1.43;1.33;;;;;;;6.14;nan;-23988.25;5034167;28;20552;-70
2022/04/18 00:36:28;;;;;;;1.27;1.20;;;;;;;6.26;nan;-23991.66;5034359;28;20199;-73
2022/04/18 00:38:54;;;;;;;1.43;1.33;;;;;;;5.91;nan;-23981.72;5034032;28;20261;-72
2022/04/18 00:41:19;;;;;;;1.53;1.40;;;;;;;6.14;nan;-23988.41;5034007;28;20622;-73
2022/04/18 00:43:47;;;;;;;1.20;1.13;;;;;;;6.10;nan;-23987.13;5033496;28;20175;-72
2022/04/18 00:46:13;;;;;;;1.63;1.30;;;;;;;6.00;nan;-23984.41;5033511;28;20178;-72
2022/04/18 00:48:40;;;;;;;1.40;1.30;;;;;;;5.71;nan;-23976.16;5033877;28;20220;-72
2022/04/18 00:51:08;;;;;;;1.70;1.43;;;;;;;6.15;nan;-23988.53;5033644;28;20650;-73
2022/04/18 00:53:35;;;;;;;1.50;1.40;;;;;;;6.02;nan;-23984.84;5033350;28;20227;-75
2022/04/18 00:56:00;;;;;;;1.37;1.27;;;;;;;6.07;nan;-23986.41;5033389;28;20191;-72
2022/04/18 00:58:26;;;;;;;1.50;1.40;;;;;;;5.66;nan;-23974.75;5031512;28;20183;-71
2022/04/18 01:00:51;;;;;;;1.30;1.20;;;;;;;5.87;nan;-23980.59;5033279;28;20598;-70
2022/04/18 01:03:31;;;;;;;1.37;1.27;;;;;;;5.94;nan;-23982.72;5031145;28;20226;-71
2022/04/18 01:05:59;;;;;;;1.50;1.40;;;;;;;5.83;nan;-23979.59;5033189;28;20270;-72
2022/04/18 01:08:25;;;;;;;1.30;1.20;;;;;;;5.94;nan;-23982.56;5032991;28;20182;-71
2022/04/18 01:10:52;;;;;;;1.33;1.23;;;;;;;5.60;nan;-23973.03;5048344;28;20183;-74
2022/04/18 01:13:18;;;;;;;1.60;1.50;;;;;;;6.04;nan;-23985.56;5033097;28;20710;-72
2022/04/18 01:15:43;;;;;;;1.27;1.17;;;;;;;5.90;nan;-23981.44;5032900;28;20278;-71
2022/04/18 01:18:08;;;;;;;1.53;1.27;;;;;;;5.80;nan;-23978.72;5032012;28;20234;-72
2022/04/18 01:21:14;;;;;;;1.40;1.30;;;;;;;6.04;nan;-23985.56;5031143;28;20531;-70
2022/04/18 01:23:42;;;;;;;1.77;1.30;;;;;;;5.65;nan;-23974.47;4992947;28;20199;-73
2022/04/18 01:28:58;;;;;;;1.60;1.50;;;;;;;6.08;nan;-23986.69;5012336;28;20234;-74
2022/04/18 01:31:31;;;;;;;1.50;1.40;;;;;;;5.85;nan;-23980.00;5012086;28;20703;-72
2022/04/18 01:33:57;;;;;;;1.60;1.50;;;;;;;5.67;nan;-23975.19;5012598;28;20654;-73
2022/04/18 01:36:23;;;;;;;1.50;1.40;;;;;;;5.57;nan;-23972.19;5013217;28;20215;-74
2022/04/18 01:38:49;;;;;;;1.50;1.40;;;;;;;5.60;nan;-23973.03;5013091;28;20172;-73
2022/04/18 01:41:15;;;;;;;1.50;1.40;;;;;;;6.05;nan;-23985.69;5013063;28;20556;-72
2022/04/18 01:43:40;;;;;;;1.43;1.33;;;;;;;5.67;nan;-23975.19;5012928;28;20183;-72
2022/04/18 01:46:10;;;;;;;1.30;1.20;;;;;;;5.86;nan;-23980.44;5011706;28;20670;-69
2022/04/18 01:48:40;;;;;;;1.47;1.37;;;;;;;5.81;nan;-23979.00;5012622;28;20168;-73
2022/04/18 01:51:10;;;;;;;1.40;1.30;;;;;;;6.02;nan;-23984.84;5012903;28;20233;-73
2022/04/18 01:53:38;;;;;;;1.60;1.50;;;;;;;5.93;nan;-23982.44;5010338;28;20224;-73
2022/04/18 01:56:07;;;;;;;1.60;1.50;;;;;;;5.95;nan;-23982.84;5012724;28;20230;-70
2022/04/18 01:58:33;;;;;;;1.43;1.33;;;;;;;5.99;nan;-23984.00;5012546;28;20211;-71
2022/04/18 02:01:06;;;;;;;1.40;1.30;;;;;;;6.04;nan;-23985.56;5010945;28;20266;-70
2022/04/18 02:03:32;;;;;;;1.50;1.30;;;;;;;5.93;nan;-23982.44;5013142;28;20175;-74
2022/04/18 02:06:22;;;;;;;1.63;1.50;;;;;;;5.69;nan;-23975.59;5012648;28;20168;-74
2022/04/18 02:08:49;;;;;;;1.50;1.40;;;;;;;5.87;nan;-23980.72;5012485;28;20644;-73
2022/04/18 02:11:44;;;;;;;1.40;1.30;;;;;;;6.16;nan;-23988.97;5012324;28;20207;-72
2022/04/18 02:14:09;;;;;;;1.40;1.30;;;;;;;5.53;nan;-23971.06;5043211;28;20176;-70
2022/04/18 02:16:35;;;;;;;1.50;1.40;;;;;;;5.91;nan;-23981.88;5012392;28;20199;-70
2022/04/18 02:23:00;;;;;;;1.47;1.37;;;;;;;5.71;nan;-23976.16;5010237;28;20239;-73
2022/04/18 02:25:26;;;;;;;1.40;1.30;;;;;;;5.76;nan;-23977.59;5011991;28;20222;-71
2022/04/18 02:27:51;;;;;;;2.00;1.90;;;;;;;5.53;nan;-23971.06;5011801;28;20716;-73
2022/04/18 02:31:10;;;;;;;1.70;1.40;;;;;;;5.69;nan;-23975.59;5011901;28;20176;-75
2022/04/18 02:33:35;;;;;;;1.80;1.70;;;;;;;5.91;nan;-23981.72;5011926;28;20180;-70
2022/04/18 02:39:39;;;;;;;1.80;1.70;;;;;;;5.60;nan;-23973.19;5010281;28;20738;-74
2022/04/18 02:42:05;;;;;;;2.43;1.73;;;;;;;5.83;nan;-23979.59;5011876;28;20171;-72
2022/04/18 02:44:31;;;;;;;1.83;1.60;;;;;;;5.82;nan;-23979.31;5010044;28;20184;-70
2022/04/18 02:46:56;;;;;;;1.90;1.80;;;;;;;5.60;nan;-23973.19;5011498;28;20249;-70
2022/04/18 02:49:33;;;;;;;2.03;1.70;;;;;;;5.88;nan;-23980.88;5011748;28;20188;-72
2022/04/18 02:51:59;;;;;;;1.60;1.50;;;;;;;5.37;nan;-23966.50;5013577;28;20183;-71
2022/04/18 02:54:24;;;;;;;1.60;1.50;;;;;;;5.47;nan;-23969.50;4996260;28;20180;-71
2022/04/18 02:56:49;;;;;;;5.27;1.40;;;;;;;5.57;nan;-23972.34;5001447;28;20273;-71
2022/04/18 02:59:15;;;;;;;1.60;1.50;;;;;;;5.71;nan;-23976.31;4996280;28;20331;-72
2022/04/18 03:01:41;;;;;;;1.40;1.30;;;;;;;5.77;nan;-23978.03;5003375;28;20644;-74
2022/04/18 03:04:06;;;;;;;1.87;1.50;;;;;;;5.66;nan;-23974.75;4995823;28;20640;-70
2022/04/18 03:06:32;;;;;;;1.83;1.60;;;;;;;5.59;nan;-23972.91;5003568;28;20176;-73
2022/04/18 03:08:57;;;;;;;2.43;1.80;;;;;;;5.68;nan;-23975.47;4996452;28;20246;-72
2022/04/18 03:11:23;;;;;;;2.03;1.70;;;;;;;5.62;nan;-23973.63;5000821;28;20184;-72
2022/04/18 03:14:03;;;;;;;2.33;2.00;;;;;;;5.63;nan;-23974.03;4995842;28;20176;-69
2022/04/18 03:16:28;;;;;;;2.13;1.80;;;;;;;5.17;nan;-23960.97;4996172;28;20196;-73
2022/04/18 03:18:54;;;;;;;3.13;2.00;;;;;;;5.52;nan;-23970.78;4994599;28;20200;-71
2022/04/18 03:21:19;;;;;;;2.53;2.00;;;;;;;5.64;nan;-23974.19;4996020;28;20231;-74
2022/04/18 03:23:45;;;;;;;2.53;1.90;;;;;;;5.53;nan;-23971.19;5000365;28;20181;-73
2022/04/18 03:26:11;;;;;;;1.90;1.70;;;;;;;5.63;nan;-23973.91;4999043;28;20603;-73
2022/04/18 03:28:37;;;;;;;1.90;1.70;;;;;;;5.39;nan;-23967.06;5000459;28;20192;-74
2022/04/18 03:31:02;;;;;;;2.13;1.60;;;;;;;5.43;nan;-23968.34;5000925;28;20598;-73
2022/04/18 03:33:28;;;;;;;1.63;1.50;;;;;;;5.68;nan;-23975.31;4999476;28;20180;-72
2022/04/18 03:41:29;;;;;;;1.67;1.40;;;;;;;5.75;nan;-23977.31;5009008;28;20204;-73
2022/04/18 03:43:54;;;;;;;1.60;1.50;;;;;;;5.71;nan;-23976.31;5000420;28;20739;-74
2022/04/18 03:46:20;;;;;;;1.40;1.30;;;;;;;5.73;nan;-23976.88;5000343;28;20195;-71
2022/04/18 03:48:45;;;;;;;1.87;1.70;;;;;;;5.54;nan;-23971.47;5012166;28;20706;-71
2022/04/18 03:51:10;;;;;;;2.00;1.50;;;;;;;5.34;nan;-23965.78;4998558;28;20640;-74
2022/04/18 03:53:36;;;;;;;2.43;1.97;;;;;;;5.31;nan;-23964.94;5006146;28;20286;-72
2022/04/18 03:56:22;;;;;;;2.03;1.40;;;;;;;5.87;nan;-23980.59;5009018;28;20209;-70
2022/04/18 03:58:47;;;;;;;1.67;1.50;;;;;;;5.87;nan;-23980.72;5008272;28;20773;-71
2022/04/18 04:01:35;;;;;;;2.57;1.90;;;;;;;5.93;nan;-23982.28;5009171;28;20184;-70
2022/04/18 04:04:03;;;;;;;2.00;1.70;;;;;;;5.58;nan;-23972.63;5007906;28;20277;-74
2022/04/18 04:06:29;;;;;;;2.03;1.80;;;;;;;5.74;nan;-23977.16;5008450;28;20663;-73
2022/04/18 04:09:46;;;;;;;2.30;1.90;;;;;;;6.00;nan;-23984.41;5008427;28;20569;-72
2022/04/18 04:12:27;;;;;;;2.63;1.90;;;;;;;5.75;nan;-23977.31;5010700;28;20191;-71
2022/04/18 04:15:28;;;;;;;2.00;1.80;;;;;;;5.73;nan;-23976.75;5011620;28;20631;-71
2022/04/18 04:17:58;;;;;;;2.13;1.77;;;;;;;6.23;nan;-23990.81;5014006;28;20187;-73
2022/04/18 04:20:24;;;;;;;2.43;2.20;;;;;;;5.78;nan;-23978.16;5013256;28;20263;-74
2022/04/18 04:22:51;;;;;;;2.63;2.03;;;;;;;6.07;nan;-23986.25;5014159;28;20206;-73
2022/04/18 04:25:18;;;;;;;5.53;3.60;;;;;;;5.83;nan;-23979.59;5014168;28;20211;-72
2022/04/18 04:27:43;;;;;;;5.57;2.80;;;;;;;6.09;nan;-23986.97;5046039;28;20250;-73
2022/04/18 04:30:09;;;;;;;2.97;2.30;;;;;;;5.94;nan;-23982.72;5011860;28;20647;-73
2022/04/18 04:32:35;;;;;;;2.50;2.20;;;;;;;6.35;nan;-23994.06;5013603;28;20179;-74
2022/04/18 04:35:01;;;;;;;2.17;1.90;;;;;;;6.04;nan;-23985.41;5013216;28;20192;-71
2022/04/18 04:37:26;;;;;;;2.80;2.17;;;;;;;6.13;nan;-23987.97;5013542;28;20202;-71
2022/04/18 04:39:51;;;;;;;2.50;2.10;;;;;;;6.57;nan;-24000.31;5013244;28;20191;-72
2022/04/18 04:42:18;;;;;;;3.03;2.47;;;;;;;6.04;nan;-23985.56;5013644;28;20269;-72
2022/04/18 04:44:44;;;;;;;2.43;2.00;;;;;;;6.49;nan;-23998.06;5013365;28;20179;-72
2022/04/18 04:47:09;;;;;;;3.03;2.10;;;;;;;6.36;nan;-23994.50;5013874;28;20541;-72
2022/04/18 04:49:35;;;;;;;2.20;2.00;;;;;;;6.39;nan;-23995.22;5013040;28;20176;-68
2022/04/18 04:52:00;;;;;;;2.80;2.13;;;;;;;6.63;nan;-24002.16;5013587;28;20242;-73
2022/04/18 04:54:26;;;;;;;2.60;2.00;;;;;;;6.69;nan;-24003.72;5013816;28;20242;-70
2022/04/18 04:56:51;;;;;;;2.50;2.10;;;;;;;6.15;nan;-23988.69;5013609;28;20293;-74
2022/04/18 04:59:16;;;;;;;2.90;2.33;;;;;;;6.58;nan;-24000.59;5013841;28;20187;-70
2022/04/18 05:01:42;;;;;;;2.70;2.10;;;;;;;6.28;nan;-23992.09;5014510;28;20180;-72
2022/04/18 05:04:09;;;;;;;2.57;2.17;;;;;;;6.50;nan;-23998.34;5015366;28;20184;-69
2022/04/18 05:06:35;;;;;;;2.87;2.23;;;;;;;6.21;nan;-23990.38;5018299;28;20612;-75
2022/04/18 05:09:01;;;;;;;3.70;2.43;;;;;;;6.61;nan;-24001.47;5019371;28;20215;-74
2022/04/18 05:11:26;;;;;;;4.10;2.67;;;;;;;6.68;nan;-24003.31;5023194;28;20176;-74
2022/04/18 05:13:52;;;;;;;4.53;2.83;;;;;;;6.78;nan;-24006.28;5013172;28;20654;-75
2022/04/18 05:16:17;;;;;;;3.43;2.57;;;;;;;6.59;nan;-24001.03;5013917;28;20334;-74
2022/04/18 05:18:42;;;;;;;3.93;2.87;;;;;;;6.83;nan;-24007.56;5013748;28;20176;-74
2022/04/18 05:21:08;;;;;;;3.73;2.53;;;;;;;6.44;nan;-23996.63;5012509;28;20606;-73
2022/04/18 05:23:33;;;;;;;3.40;2.80;;;;;;;6.42;nan;-23996.06;5014256;28;20179;-71
2022/04/18 05:25:59;;;;;;;4.33;2.80;;;;;;;6.83;nan;-24007.56;5012521;28;20180;-72
2022/04/18 05:28:24;;;;;;;3.83;2.93;;;;;;;6.67;nan;-24003.16;5013543;28;20180;-74
2022/04/18 05:30:50;;;;;;;4.67;2.80;;;;;;;6.50;nan;-23998.47;5013597;28;20211;-73
2022/04/18 05:33:15;;;;;;;3.63;2.53;;;;;;;7.04;nan;-24013.50;5013228;28;20230;-71
2022/04/18 05:35:41;;;;;;;3.23;2.50;;;;;;;7.20;nan;-24018.06;5013518;28;20208;-72
2022/04/18 05:38:06;;;;;;;4.07;2.70;;;;;;;7.24;nan;-24019.19;5013993;28;20168;-71
2022/04/18 05:40:32;;;;;;;3.20;2.37;;;;;;;7.17;nan;-24017.06;5013621;28;20176;-74
2022/04/18 05:43:00;;;;;;;2.43;2.17;;;;;;;6.66;nan;-24003.00;5013068;28;20644;-75
2022/04/18 05:45:26;;;;;;;3.43;2.60;;;;;;;7.05;nan;-24013.94;5012602;28;20191;-72
2022/04/18 05:47:51;;;;;;;2.80;2.47;;;;;;;6.74;nan;-24005.16;5012514;28;20176;-75
2022/04/18 05:50:17;;;;;;;2.67;2.40;;;;;;;7.17;nan;-24017.19;5012662;28;20230;-73
2022/04/18 05:52:42;;;;;;;2.83;2.53;;;;;;;6.90;nan;-24009.69;5012295;28;20223;-76
2022/04/18 05:55:08;;;;;;;3.57;2.50;;;;;;;7.39;nan;-24023.31;5010981;28;20183;-71
2022/04/18 05:57:33;;;;;;;3.27;2.50;;;;;;;6.98;nan;-24011.81;5012254;28;20671;-70
2022/04/18 05:59:58;;;;;;;4.33;2.80;;;;;;;7.41;nan;-24024.00;5012048;28;20551;-75
2022/04/18 06:02:24;;;;;;;4.40;2.70;;;;;;;6.56;nan;-24000.03;5011591;28;20705;-73
2022/04/18 06:04:49;;;;;;;2.97;2.50;;;;;;;6.97;nan;-24011.53;5013069;28;20187;-73
2022/04/18 06:07:15;;;;;;;3.80;2.67;;;;;;;6.75;nan;-24005.28;5012733;28;20535;-73
2022/04/18 06:09:40;;;;;;;3.30;2.70;;;;;;;7.21;nan;-24018.34;5012277;28;20183;-75
2022/04/18 06:12:06;;;;;;;3.93;2.77;;;;;;;6.96;nan;-24011.38;5012156;28;20604;-74
2022/04/18 06:14:31;;;;;;;3.00;2.70;;;;;;;7.31;nan;-24021.03;5012348;28;20183;-72
2022/04/18 06:16:57;;;;;;;3.63;2.43;;;;;;;7.67;nan;-24031.25;5010388;28;20556;-75
2022/04/18 06:19:22;;;;;;;3.47;2.47;;;;;;;7.77;nan;-24033.94;5010162;28;20180;-73
2022/04/18 06:21:51;;;;;;;4.03;3.00;;;;;;;7.35;nan;-24022.16;5010116;28;20168;-74
2022/04/18 06:24:18;;;;;;;4.00;2.87;;;;;;;7.23;nan;-24018.91;5009971;28;20206;-73
2022/04/18 06:26:43;;;;;;;7.53;3.13;;;;;;;7.74;nan;-24033.06;5007837;28;20554;-73
2022/04/18 06:29:09;;;;;;;3.07;2.40;;;;;;;7.17;nan;-24017.06;5009853;28;20237;-71
2022/04/18 06:31:34;;;;;;;3.53;2.93;;;;;;;7.76;nan;-24033.78;5011081;28;20160;-74
2022/04/18 06:34:00;;;;;;;3.23;2.50;;;;;;;7.54;nan;-24027.69;5012147;28;20194;-74
2022/04/18 06:36:25;;;;;;;3.50;2.77;;;;;;;7.60;nan;-24029.09;5012091;28;20283;-73
2022/04/18 06:38:51;;;;;;;3.03;2.50;;;;;;;8.05;nan;-24041.72;5012167;28;20184;-76
2022/04/18 06:41:16;;;;;;;3.27;2.40;;;;;;;7.72;nan;-24032.66;5012186;28;20176;-73
2022/04/18 06:43:41;;;;;;;2.80;2.27;;;;;;;7.97;nan;-24039.72;5011875;28;20168;-72
2022/04/18 06:46:07;;;;;;;2.97;2.40;;;;;;;8.19;nan;-24045.69;5011995;28;20557;-74
2022/04/18 06:48:32;;;;;;;2.67;2.10;;;;;;;8.31;nan;-24049.22;5011833;28;20257;-74
2022/04/18 06:50:59;;;;;;;2.30;2.10;;;;;;;8.18;nan;-24045.53;5011951;28;20186;-74
2022/04/18 06:53:24;;;;;;;2.60;2.10;;;;;;;8.64;nan;-24058.44;5011498;28;20216;-75
2022/04/18 06:58:34;;;;;;;1.77;1.67;;;;;;;8.51;nan;-24054.75;5011771;28;20647;-72
2022/04/18 07:00:59;;;;;;;1.93;1.70;;;;;;;8.93;nan;-24066.34;5011679;28;20180;-72
2022/04/18 07:03:26;;;;;;;2.10;1.70;;;;;;;9.13;nan;-24072.16;5012104;28;20203;-74
2022/04/18 07:05:52;;;;;;;3.33;1.63;;;;;;;8.90;nan;-24065.50;5011487;28;20188;-74
2022/04/18 07:08:17;;;;;;;2.03;1.80;;;;;;;8.41;nan;-24052.06;5011622;28;20175;-74
2022/04/18 07:10:43;;;;;;;1.70;1.60;;;;;;;9.24;nan;-24075.13;5011723;28;20226;-73
2022/04/18 07:13:08;;;;;;;1.50;1.40;;;;;;;9.17;nan;-24073.13;5011914;28;20556;-74
2022/04/18 07:15:33;;;;;;;1.60;1.50;;;;;;;8.73;nan;-24060.84;5010091;28;20188;-73
2022/04/18 07:17:59;;;;;;;1.93;1.57;;;;;;;8.90;nan;-24065.66;5012161;28;20231;-73
2022/04/18 07:20:25;;;;;;;1.70;1.60;;;;;;;9.08;nan;-24070.59;5011678;28;20183;-75
2022/04/18 07:22:51;;;;;;;2.27;1.70;;;;;;;9.24;nan;-24075.13;5011692;28;20176;-75
2022/04/18 07:25:17;;;;;;;1.47;1.37;;;;;;;9.36;nan;-24078.50;5011644;28;20172;-72
2022/04/18 07:27:44;;;;;;;1.80;1.70;;;;;;;8.86;nan;-24064.66;5011599;28;20172;-73
2022/04/18 07:30:10;;;;;;;1.53;1.40;;;;;;;8.92;nan;-24066.06;5011188;28;20176;-73
2022/04/18 07:32:42;;;;;;;2.27;1.67;;;;;;;9.12;nan;-24071.88;5011389;28;20567;-71
2022/04/18 07:35:09;;;;;;;1.77;1.40;;;;;;;8.91;nan;-24065.78;5011894;28;20188;-72
2022/04/18 07:37:34;;;;;;;1.83;1.57;;;;;;;9.55;nan;-24083.88;5012808;28;20214;-72
2022/04/18 07:40:00;;;;;;;1.73;1.40;;;;;;;9.27;nan;-24075.97;5015057;28;20180;-73
2022/04/18 07:42:25;;;;;;;1.50;1.40;;;;;;;9.05;nan;-24069.75;5015174;28;20544;-75
2022/04/18 07:44:51;;;;;;;1.60;1.50;;;;;;;9.03;nan;-24069.19;5014780;28;20265;-73
2022/04/18 07:47:16;;;;;;;1.70;1.60;;;;;;;9.54;nan;-24083.47;5014913;28;20211;-74
2022/04/18 07:49:41;;;;;;;2.07;1.43;;;;;;;9.64;nan;-24086.44;5015112;28;20540;-76
2022/04/18 07:52:08;;;;;;;1.67;1.57;;;;;;;9.17;nan;-24073.28;5014069;28;20183;-75
2022/04/18 07:54:34;;;;;;;1.50;1.40;;;;;;;9.52;nan;-24082.91;5014292;28;20240;-73
2022/04/18 07:57:00;;;;;;;2.20;1.47;;;;;;;9.49;nan;-24082.19;5014413;28;20211;-74
2022/04/18 07:59:26;;;;;;;1.87;1.50;;;;;;;9.83;nan;-24091.50;5012296;28;20557;-73
2022/04/18 08:01:51;;;;;;;1.50;1.40;;;;;;;10.00;nan;-24096.44;5010689;28;20176;-74
2022/04/18 08:04:17;;;;;;;1.63;1.53;;;;;;;9.99;nan;-24096.03;5013799;28;20192;-71
2022/04/18 08:06:42;;;;;;;1.73;1.60;;;;;;;10.01;nan;-24096.59;5013042;28;20188;-75
2022/04/18 08:09:07;;;;;;;3.67;2.50;;;;;;;10.05;nan;-24097.72;5013245;28;20282;-74
2022/04/18 08:11:33;;;;;;;1.70;1.60;;;;;;;9.30;nan;-24076.94;5014773;28;20191;-73
2022/04/18 08:13:58;;;;;;;1.60;1.50;;;;;;;9.89;nan;-24093.34;5014398;28;20255;-73
2022/04/18 08:16:24;;;;;;;1.60;1.50;;;;;;;9.53;nan;-24083.31;5014511;28;20674;-74
2022/04/18 08:18:49;;;;;;;1.60;1.50;;;;;;;10.12;nan;-24099.69;5014611;28;20187;-72
2022/04/18 08:21:17;;;;;;;1.60;1.50;;;;;;;9.76;nan;-24089.81;5014500;28;20535;-74
2022/04/18 08:23:47;;;;;;;1.80;1.70;;;;;;;10.24;nan;-24103.09;5014149;28;20651;-71
2022/04/18 08:26:12;;;;;;;1.67;1.50;;;;;;;9.68;nan;-24087.41;5014160;28;20176;-73
2022/04/18 08:28:39;;;;;;;1.83;1.67;;;;;;;10.08;nan;-24098.72;5013628;28;20196;-73
2022/04/18 08:31:05;;;;;;;1.50;1.40;;;;;;;9.95;nan;-24095.03;5028745;28;20625;-73
2022/04/18 08:33:31;;;;;;;1.50;1.40;;;;;;;10.04;nan;-24097.59;5014335;28;20563;-74
2022/04/18 08:35:58;;;;;;;1.53;1.43;;;;;;;10.19;nan;-24101.81;5014006;28;20200;-72
2022/04/18 08:38:24;;;;;;;1.50;1.40;;;;;;;10.25;nan;-24103.22;5013302;28;20180;-72
2022/04/18 08:40:50;;;;;;;1.70;1.60;;;;;;;9.81;nan;-24090.94;4854567;28;21104;-72
2022/04/18 08:43:17;;;;;;;1.80;1.70;;;;;;;9.64;nan;-24086.44;4197606;28;20977;-74
2022/04/18 08:45:42;;;;;;;1.50;1.40;;;;;;;10.00;nan;-24096.44;4733852;28;20673;-74
2022/04/18 08:53:37;;;;;;;1.50;1.40;;;;;;;9.87;nan;-24092.78;5002956;28;20262;-72
2022/04/18 08:56:03;;;;;;;2.00;1.70;;;;;;;10.31;nan;-24105.06;5013483;28;20707;-71
2022/04/18 08:58:29;;;;;;;1.83;1.50;;;;;;;9.90;nan;-24093.47;5013903;28;20258;-74
2022/04/18 09:00:56;;;;;;;2.03;1.75;;;;;;;10.30;nan;-24104.78;5011996;28;20176;-73
2022/04/18 09:03:22;;;;;;;1.60;1.50;;;;;;;10.28;nan;-24104.22;5012805;28;20193;-72
2022/04/18 09:05:48;;;;;;;1.90;1.50;;;;;;;10.29;nan;-24104.50;5012893;28;20184;-74
2022/04/18 09:08:14;;;;;;;3.00;1.70;;;;;;;10.29;nan;-24104.50;5013034;28;20176;-73
2022/04/18 09:10:41;;;;;;;1.60;1.50;;;;;;;10.10;nan;-24099.13;5027661;28;20179;-73
2022/04/18 09:13:14;;;;;;;1.70;1.60;;;;;;;10.40;nan;-24107.47;5013240;28;20184;-73
2022/04/18 09:15:51;;;;;;;2.33;1.67;;;;;;;10.02;nan;-24096.88;5013127;28;20180;-73
2022/04/18 09:18:18;;;;;;;4.70;3.23;;;;;;;9.69;nan;-24087.84;5012736;28;20164;-76
2022/04/18 09:20:49;;;;;;;2.00;1.80;;;;;;;10.22;nan;-24102.38;5013078;28;20180;-74
2022/04/18 09:23:34;;;;;;;2.00;1.80;;;;;;;10.54;nan;-24111.56;5013377;28;20230;-74
2022/04/18 09:26:02;;;;;;;1.60;1.50;;;;;;;10.20;nan;-24101.97;5012327;28;20182;-75
2022/04/18 09:28:32;;;;;;;1.63;1.50;;;;;;;10.56;nan;-24112.13;5013277;28;20190;-73
2022/04/18 09:31:06;;;;;;;1.77;1.33;;;;;;;10.24;nan;-24103.09;5012394;28;20188;-75
2022/04/18 09:33:51;;;;;;;1.40;1.30;;;;;;;10.45;nan;-24109.03;5011548;28;20686;-74
2022/04/18 09:36:19;;;;;;;1.40;1.30;;;;;;;10.36;nan;-24106.47;5011160;28;20579;-71
2022/04/18 09:39:04;;;;;;;1.50;1.40;;;;;;;10.30;nan;-24104.66;5005145;28;20237;-71
2022/04/18 09:41:32;;;;;;;1.67;1.50;;;;;;;9.58;nan;-24084.59;5011410;28;20233;-72
2022/04/18 09:43:58;;;;;;;1.60;1.50;;;;;;;9.94;nan;-24094.63;5013617;28;20187;-73
2022/04/18 09:46:24;;;;;;;2.43;1.80;;;;;;;9.80;nan;-24090.66;5012067;28;20184;-72
2022/04/18 09:48:51;;;;;;;1.90;1.70;;;;;;;9.13;nan;-24072.16;5013441;28;20179;-71
2022/04/18 09:51:25;;;;;;;2.30;2.10;;;;;;;9.23;nan;-24074.84;5043966;28;20581;-71
2022/04/18 09:53:54;;;;;;;2.87;2.57;;;;;;;8.75;nan;-24061.53;5013734;28;20284;-73
2022/04/18 09:56:22;;;;;;;3.73;2.80;;;;;;;8.21;nan;-24046.25;5011429;28;20216;-71
2022/04/18 09:58:48;;;;;;;2.57;2.37;;;;;;;7.89;nan;-24037.31;5011172;28;20685;-73
2022/04/18 10:01:14;;;;;;;4.47;3.03;;;;;;;7.72;nan;-24032.50;5012327;28;20199;-73
2022/04/18 10:03:42;;;;;;;2.33;2.07;;;;;;;7.57;nan;-24028.41;5011932;28;20214;-71
2022/04/18 10:06:07;;;;;;;1.53;1.43;;;;;;;7.55;nan;-24027.84;5012504;28;20346;-73
2022/04/18 10:08:35;;;;;;;3.50;2.90;;;;;;;7.58;nan;-24028.69;5012286;28;20283;-74
2022/04/18 10:11:04;;;;;;;2.47;2.27;;;;;;;7.83;nan;-24035.63;5014459;28;20172;-71
2022/04/18 10:13:31;;;;;;;3.00;2.37;;;;;;;8.01;nan;-24040.72;5018021;28;20222;-70
2022/04/18 10:15:59;;;;;;;4.03;2.80;;;;;;;8.35;nan;-24050.38;5024308;28;20616;-71
2022/04/18 10:18:25;;;;;;;3.87;2.70;;;;;;;7.81;nan;-24035.06;5024027;28;20176;-71
2022/04/18 10:21:09;;;;;;;3.17;2.60;;;;;;;8.49;nan;-24054.03;5037630;28;20198;-73
2022/04/18 10:24:16;;;;;;;3.23;2.60;;;;;;;8.63;nan;-24058.16;5035211;28;20175;-71
2022/04/18 10:27:19;;;;;;;2.90;2.47;;;;;;;8.92;nan;-24066.06;5014579;28;20195;-75
2022/04/18 10:29:48;;;;;;;2.77;2.47;;;;;;;9.21;nan;-24074.41;5012435;28;20212;-73
2022/04/18 10:32:19;;;;;;;2.40;2.17;;;;;;;9.17;nan;-24073.13;5012130;28;20176;-74
2022/04/18 10:34:49;;;;;;;2.67;2.20;;;;;;;9.16;nan;-24072.84;5011162;28;20545;-73
2022/04/18 10:37:15;;;;;;;3.70;2.30;;;;;;;9.85;nan;-24092.06;5012161;28;20538;-75
2022/04/18 10:39:40;;;;;;;3.20;2.73;;;;;;;9.90;nan;-24093.47;5011651;28;20211;-73
2022/04/18 10:42:27;;;;;;;3.73;2.40;;;;;;;10.15;nan;-24100.53;5011151;28;20180;-73
2022/04/18 10:45:06;;;;;;;3.63;2.67;;;;;;;9.89;nan;-24093.22;5010384;28;20182;-74
2022/04/18 10:47:56;;;;;;;2.87;2.37;;;;;;;10.39;nan;-24107.31;5011876;28;20180;-71
2022/04/18 10:50:27;;;;;;;3.10;2.50;;;;;;;9.65;nan;-24086.72;5012081;28;20168;-75
2022/04/18 10:53:24;;;;;;;2.40;2.20;;;;;;;10.32;nan;-24105.34;5012257;28;20232;-73
2022/04/18 10:55:53;;;;;;;2.58;2.33;;;;;;;10.22;nan;-24102.38;5012127;28;20199;-72
2022/04/18 10:58:24;;;;;;;2.70;2.50;;;;;;;10.29;nan;-24104.38;5011928;28;20234;-72
2022/04/18 11:01:00;;;;;;;3.53;2.80;;;;;;;10.17;nan;-24101.13;5010867;28;20641;-73
2022/04/18 11:03:35;;;;;;;3.10;2.80;;;;;;;9.78;nan;-24090.25;5012275;28;20191;-72
2022/04/18 11:06:24;;;;;;;3.38;2.80;;;;;;;10.29;nan;-24104.38;5012102;28;20176;-70
2022/04/18 11:09:07;;;;;;;3.53;3.00;;;;;;;10.85;nan;-24120.03;5014253;28;20286;-73
2022/04/18 11:11:46;;;;;;;4.80;3.60;;;;;;;10.81;nan;-24119.03;5012166;28;20184;-74
2022/04/18 11:14:26;;;;;;;4.10;3.28;;;;;;;10.44;nan;-24108.59;5015753;28;20183;-74
2022/04/18 11:16:56;;;;;;;2.72;2.30;;;;;;;10.39;nan;-24107.31;5015913;28;20569;-73
2022/04/18 11:19:39;;;;;;;2.90;2.60;;;;;;;9.68;nan;-24087.56;5014481;28;20191;-72
2022/04/18 11:22:08;;;;;;;2.77;2.20;;;;;;;9.58;nan;-24084.59;5016236;28;20164;-72
2022/04/18 11:24:49;;;;;;;2.90;2.50;;;;;;;9.76;nan;-24089.81;5015594;28;20605;-71
2022/04/18 11:27:23;;;;;;;3.13;2.70;;;;;;;9.53;nan;-24083.16;5015481;28;20229;-73
2022/04/18 11:29:57;;;;;;;7.20;4.43;;;;;;;9.92;nan;-24094.06;5014710;28;20271;-73
2022/04/18 11:32:25;;;;;;;4.27;3.10;;;;;;;9.72;nan;-24088.69;5011756;28;20184;-72
2022/04/18 11:34:53;;;;;;;2.80;2.40;;;;;;;9.02;nan;-24068.91;5011066;28;20187;-75
2022/04/18 11:37:33;;;;;;;3.00;2.30;;;;;;;9.08;nan;-24070.72;5014096;28;20371;-74
2022/04/18 11:40:04;;;;;;;4.20;3.37;;;;;;;9.36;nan;-24078.50;5013870;28;20226;-72
2022/04/18 11:42:31;;;;;;;3.53;2.70;;;;;;;9.25;nan;-24075.53;5015758;28;20187;-73
2022/04/18 11:44:59;;;;;;;3.00;2.20;;;;;;;9.30;nan;-24076.81;5013262;28;20195;-70
2022/04/18 11:47:35;;;;;;;2.73;2.50;;;;;;;9.47;nan;-24081.47;5013357;28;20195;-72
2022/04/18 11:50:02;;;;;;;2.60;2.27;;;;;;;9.58;nan;-24084.59;5014869;28;20543;-75
2022/04/18 11:52:30;;;;;;;2.30;2.10;;;;;;;9.35;nan;-24078.09;5013566;28;20300;-74
2022/04/18 11:54:58;;;;;;;2.93;2.30;;;;;;;8.99;nan;-24068.03;5014309;28;20203;-73
2022/04/18 11:57:25;;;;;;;2.60;2.20;;;;;;;8.91;nan;-24065.78;5015164;28;20585;-71
2022/04/18 11:59:51;;;;;;;1.90;1.73;;;;;;;9.48;nan;-24081.75;5015064;28;20655;-71
2022/04/18 12:07:49;;;;;;;2.30;2.00;;;;;;;10.43;nan;-24108.47;5014837;28;20187;-75
2022/04/18 12:10:24;;;;;;;2.33;2.00;;;;;;;10.17;nan;-24101.25;5014799;28;20180;-73
2022/04/18 12:12:50;;;;;;;2.40;2.00;;;;;;;9.84;nan;-24091.78;5014949;28;20242;-71
2022/04/18 12:15:19;;;;;;;2.93;2.37;;;;;;;9.91;nan;-24093.91;5014580;28;20678;-73
2022/04/18 12:17:45;;;;;;;3.97;2.50;;;;;;;10.35;nan;-24106.19;5014450;28;20215;-71
2022/04/18 12:20:24;;;;;;;3.00;2.30;;;;;;;10.49;nan;-24110.16;5012620;28;20545;-72
2022/04/18 12:23:00;;;;;;;3.07;2.23;;;;;;;10.29;nan;-24104.38;5014355;28;20533;-72
2022/04/18 12:25:33;;;;;;;2.80;2.23;;;;;;;10.14;nan;-24100.41;5014001;28;20168;-74
2022/04/18 12:28:00;;;;;;;3.13;2.40;;;;;;;10.79;nan;-24118.47;5013854;28;20194;-72